Time;durP1;ratioP1;P1;durP2;ratioP2;P2;SDS_P1;SDS_P2;PMS_P1;PMS_P2;Temp;Humidity;BMP_temperature;BMP_pressure;BME280_temperature;BME280_humidity;BME280_pressure;Samples;Min_cycle;Max_cycle;Signal;HPM_P1;HPM_P2
2023/08/31 00:00:42;;;;;;;1.30;0.70;;;20.40;74.20;;;;;;5092786;28;20467;-61
2023/08/31 00:03:09;;;;;;;3.15;0.80;;;20.40;74.20;;;;;;5092069;28;20484;-60
2023/08/31 00:05:42;;;;;;;1.02;0.50;;;20.40;74.30;;;;;;5092509;28;20036;-61
2023/08/31 00:08:08;;;;;;;1.20;0.60;;;20.40;74.20;;;;;;5073934;28;20059;-61
2023/08/31 00:10:34;;;;;;;1.67;0.60;;;20.40;74.20;;;;;;5071669;28;20041;-61
2023/08/31 00:13:01;;;;;;;1.05;0.50;;;20.40;74.20;;;;;;5072873;28;20055;-61
2023/08/31 00:15:28;;;;;;;1.17;0.50;;;20.40;74.30;;;;;;5072888;28;20048;-61
2023/08/31 00:17:54;;;;;;;1.98;0.73;;;20.30;74.20;;;;;;5070247;28;20058;-61
2023/08/31 00:20:19;;;;;;;1.25;0.73;;;20.30;74.20;;;;;;5072630;28;20123;-61
2023/08/31 00:22:45;;;;;;;2.00;0.63;;;20.40;74.20;;;;;;5071897;28;20032;-61
2023/08/31 00:25:10;;;;;;;2.70;0.70;;;20.30;74.20;;;;;;5070471;28;20103;-61
2023/08/31 00:27:40;;;;;;;1.98;0.65;;;20.30;74.10;;;;;;5070884;28;20036;-61
2023/08/31 00:30:08;;;;;;;1.35;0.50;;;20.30;74.10;;;;;;5072689;28;20492;-61
2023/08/31 00:32:34;;;;;;;1.45;0.68;;;20.30;74.10;;;;;;5071294;28;20086;-61
2023/08/31 00:35:00;;;;;;;1.77;0.60;;;20.30;74.10;;;;;;5073983;28;20429;-62
2023/08/31 00:37:26;;;;;;;1.67;0.60;;;20.30;74.20;;;;;;5076444;28;20128;-61
2023/08/31 00:39:52;;;;;;;1.98;0.60;;;20.30;74.20;;;;;;5075393;28;20392;-61
2023/08/31 00:42:18;;;;;;;1.38;0.60;;;20.30;74.20;;;;;;5076507;28;20091;-61
2023/08/31 00:44:46;;;;;;;2.15;0.63;;;20.30;74.10;;;;;;5075138;28;20044;-61
2023/08/31 00:47:12;;;;;;;1.55;0.55;;;20.30;74.10;;;;;;5075081;28;20056;-61
2023/08/31 00:49:39;;;;;;;1.25;0.50;;;20.30;74.10;;;;;;5074486;28;20128;-61
2023/08/31 00:52:05;;;;;;;2.13;0.60;;;20.30;74.10;;;;;;5075199;28;20052;-61
2023/08/31 00:54:31;;;;;;;1.98;0.60;;;20.30;74.10;;;;;;5074218;28;20097;-61
2023/08/31 00:56:57;;;;;;;2.17;0.60;;;20.30;74.10;;;;;;5075811;28;20051;-61
2023/08/31 00:59:24;;;;;;;0.88;0.47;;;20.30;74.10;;;;;;5075280;28;20054;-61
2023/08/31 01:01:59;;;;;;;2.05;0.50;;;20.30;74.10;;;;;;5075834;28;20032;-61
2023/08/31 01:04:46;;;;;;;1.80;0.60;;;20.30;74.10;;;;;;5075899;28;20056;-61
2023/08/31 01:07:31;;;;;;;0.98;0.60;;;20.30;74.10;;;;;;5074480;28;20468;-61
2023/08/31 01:10:14;;;;;;;2.00;0.70;;;20.20;74.00;;;;;;5074439;28;20215;-61
2023/08/31 01:12:47;;;;;;;1.17;0.50;;;20.20;74.00;;;;;;5059031;28;20397;-61
2023/08/31 01:15:12;;;;;;;1.20;0.60;;;20.20;74.00;;;;;;5057974;28;20051;-61
2023/08/31 01:17:42;;;;;;;2.60;0.60;;;20.20;74.00;;;;;;5074299;28;20036;-61
2023/08/31 01:20:08;;;;;;;1.23;0.65;;;20.20;73.90;;;;;;5075534;28;20041;-60
2023/08/31 01:23:17;;;;;;;1.23;0.50;;;20.20;73.90;;;;;;5074894;28;20120;-61
2023/08/31 01:25:43;;;;;;;1.25;0.47;;;20.20;74.00;;;;;;4993789;28;20173;-60
2023/08/31 01:28:09;;;;;;;1.40;0.60;;;20.20;74.00;;;;;;4961026;28;20043;-60
2023/08/31 01:30:35;;;;;;;2.10;0.70;;;20.20;73.90;;;;;;5020580;28;20065;-61
2023/08/31 01:33:02;;;;;;;2.85;0.70;;;20.20;73.90;;;;;;5075596;28;20048;-60
2023/08/31 01:35:27;;;;;;;1.10;0.50;;;20.20;73.90;;;;;;5074150;28;20088;-61
2023/08/31 01:38:00;;;;;;;2.10;0.60;;;20.20;73.80;;;;;;5074092;28;20638;-60
2023/08/31 01:40:43;;;;;;;2.75;0.60;;;20.20;73.80;;;;;;5057250;28;20056;-61
2023/08/31 01:43:09;;;;;;;1.42;0.52;;;20.20;73.80;;;;;;5073300;28;20384;-61
2023/08/31 01:45:35;;;;;;;1.00;0.45;;;20.10;73.80;;;;;;5073481;28;20492;-60
2023/08/31 01:48:01;;;;;;;2.25;0.60;;;20.20;73.80;;;;;;5057197;28;20067;-60
2023/08/31 01:50:26;;;;;;;2.55;0.70;;;20.20;73.80;;;;;;5074573;28;20049;-60
2023/08/31 01:52:55;;;;;;;2.53;0.70;;;20.20;73.80;;;;;;5074379;28;20462;-61
2023/08/31 01:55:22;;;;;;;1.45;0.55;;;20.20;73.80;;;;;;5075128;28;20102;-60
2023/08/31 01:57:47;;;;;;;2.15;0.55;;;20.10;73.80;;;;;;5073976;28;20044;-60
2023/08/31 02:00:14;;;;;;;1.38;0.50;;;20.20;73.80;;;;;;5074892;28;20199;-61
2023/08/31 02:02:39;;;;;;;2.10;0.50;;;20.10;73.80;;;;;;5077294;28;20032;-61
2023/08/31 02:05:06;;;;;;;1.40;0.63;;;20.10;73.80;;;;;;5089642;28;20094;-60
2023/08/31 02:07:31;;;;;;;1.85;0.40;;;20.10;73.80;;;;;;5082781;28;20028;-61
2023/08/31 02:09:57;;;;;;;1.85;0.60;;;20.10;73.80;;;;;;5094165;28;20502;-61
2023/08/31 02:12:22;;;;;;;1.00;0.40;;;20.10;73.80;;;;;;5095134;28;20044;-61
2023/08/31 02:14:48;;;;;;;1.35;0.60;;;20.10;73.80;;;;;;5094665;28;20046;-61
2023/08/31 02:17:14;;;;;;;0.98;0.50;;;20.10;73.80;;;;;;5094165;28;20491;-61
2023/08/31 02:19:39;;;;;;;1.45;0.52;;;20.10;73.80;;;;;;5094405;28;20072;-60
2023/08/31 02:22:05;;;;;;;1.83;0.60;;;20.10;73.70;;;;;;5094634;28;20445;-61
2023/08/31 02:24:30;;;;;;;1.40;0.50;;;20.10;73.70;;;;;;5094293;28;20131;-61
2023/08/31 02:26:56;;;;;;;1.35;0.60;;;20.10;73.70;;;;;;5094421;28;20044;-60
2023/08/31 02:29:22;;;;;;;2.42;0.70;;;20.10;73.70;;;;;;5093315;28;20055;-61
2023/08/31 02:31:48;;;;;;;1.40;0.57;;;20.10;73.70;;;;;;5093615;28;20041;-61
2023/08/31 02:34:13;;;;;;;1.13;0.65;;;20.10;73.70;;;;;;5094516;28;20088;-60
2023/08/31 02:36:39;;;;;;;1.25;0.60;;;20.10;73.70;;;;;;5092516;28;20048;-60
2023/08/31 02:39:04;;;;;;;2.28;0.57;;;20.10;73.60;;;;;;5093648;28;20048;-60
2023/08/31 02:41:30;;;;;;;1.65;0.68;;;20.10;73.70;;;;;;5094230;28;20085;-60
2023/08/31 02:43:55;;;;;;;1.30;0.50;;;20.10;73.70;;;;;;5093923;28;20427;-60
2023/08/31 02:46:22;;;;;;;1.10;0.50;;;20.10;73.70;;;;;;5093420;28;20089;-61
2023/08/31 02:48:48;;;;;;;0.90;0.40;;;20.00;73.60;;;;;;5094014;28;20062;-60
2023/08/31 02:51:14;;;;;;;1.17;0.43;;;20.10;73.70;;;;;;5094152;28;20036;-60
2023/08/31 02:53:39;;;;;;;2.05;0.70;;;20.10;73.60;;;;;;5091960;28;20126;-60
2023/08/31 02:56:05;;;;;;;1.33;0.50;;;20.10;73.60;;;;;;5094315;28;20411;-60
2023/08/31 02:58:31;;;;;;;1.27;0.60;;;20.10;73.70;;;;;;5093404;28;20047;-60
2023/08/31 03:01:11;;;;;;;2.03;0.50;;;20.00;73.60;;;;;;5092858;28;20039;-60
2023/08/31 03:03:37;;;;;;;1.65;0.70;;;20.10;73.60;;;;;;5092421;28;20044;-60
2023/08/31 03:06:03;;;;;;;2.25;0.60;;;20.00;73.60;;;;;;5092830;28;20462;-60
2023/08/31 03:08:28;;;;;;;1.77;0.70;;;20.10;73.60;;;;;;5094049;28;20474;-60
2023/08/31 03:10:56;;;;;;;1.67;0.50;;;20.00;74.20;;;;;;5093778;28;20089;-61
2023/08/31 03:13:21;;;;;;;1.52;0.50;;;20.10;73.60;;;;;;5093327;28;20051;-61
2023/08/31 03:15:47;;;;;;;1.10;0.43;;;20.00;73.60;;;;;;5093313;28;20040;-61
2023/08/31 03:18:13;;;;;;;3.03;0.55;;;20.00;73.50;;;;;;5074463;28;20096;-61
2023/08/31 03:20:38;;;;;;;1.83;0.68;;;20.00;73.60;;;;;;5072448;28;20480;-61
2023/08/31 03:23:04;;;;;;;0.82;0.50;;;20.00;73.60;;;;;;5073400;28;20051;-61
2023/08/31 03:25:29;;;;;;;0.93;0.50;;;20.00;73.60;;;;;;5073462;28;20044;-61
2023/08/31 03:27:55;;;;;;;1.27;0.50;;;20.00;73.60;;;;;;5072431;28;20102;-61
2023/08/31 03:30:21;;;;;;;2.80;0.60;;;20.00;73.60;;;;;;5071855;28;20521;-61
2023/08/31 03:32:46;;;;;;;1.75;0.50;;;20.00;73.50;;;;;;5072816;28;20103;-61
2023/08/31 03:35:12;;;;;;;1.27;0.70;;;20.00;73.60;;;;;;5070764;28;20094;-61
2023/08/31 03:37:37;;;;;;;2.15;0.60;;;20.00;73.60;;;;;;5072638;28;20059;-61
2023/08/31 03:40:06;;;;;;;3.78;0.57;;;20.00;73.60;;;;;;5073285;28;20051;-61
2023/08/31 03:42:31;;;;;;;1.63;0.60;;;20.00;73.50;;;;;;5072411;28;20040;-60
2023/08/31 03:44:57;;;;;;;1.17;0.50;;;20.00;73.60;;;;;;5072465;28;20063;-61
2023/08/31 03:47:22;;;;;;;1.02;0.55;;;20.00;73.60;;;;;;5071940;28;20048;-61
2023/08/31 03:49:48;;;;;;;2.13;0.50;;;20.00;73.60;;;;;;5071730;28;20032;-61
2023/08/31 03:52:14;;;;;;;1.42;0.50;;;20.00;73.50;;;;;;5072890;28;20152;-60
2023/08/31 03:54:39;;;;;;;1.17;0.40;;;20.00;73.60;;;;;;5072786;28;20041;-61
2023/08/31 03:57:05;;;;;;;1.17;0.60;;;20.00;73.50;;;;;;5072309;28;20178;-60
2023/08/31 03:59:30;;;;;;;1.55;0.60;;;20.00;73.50;;;;;;5071409;28;20045;-60
2023/08/31 04:01:56;;;;;;;1.55;0.50;;;20.00;73.50;;;;;;5087226;28;20046;-60
2023/08/31 04:04:21;;;;;;;1.17;0.50;;;20.00;73.50;;;;;;5091141;28;20047;-60
2023/08/31 04:06:47;;;;;;;1.10;0.50;;;20.00;73.50;;;;;;5090150;28;20047;-60
2023/08/31 04:09:13;;;;;;;0.70;0.40;;;19.90;73.50;;;;;;5091142;28;20040;-60
2023/08/31 04:11:38;;;;;;;1.55;0.60;;;19.90;73.50;;;;;;5091653;28;20388;-61
2023/08/31 04:14:04;;;;;;;2.67;0.60;;;20.00;73.50;;;;;;5092594;28;20126;-61
2023/08/31 04:16:29;;;;;;;1.00;0.50;;;19.90;73.50;;;;;;5092266;28;20028;-61
2023/08/31 04:18:55;;;;;;;1.02;0.40;;;19.90;73.40;;;;;;5091116;28;20442;-60
2023/08/31 04:21:21;;;;;;;2.15;0.50;;;20.00;73.40;;;;;;5092804;28;20040;-60
2023/08/31 04:23:46;;;;;;;1.92;0.52;;;20.00;73.50;;;;;;5091914;28;20067;-60
2023/08/31 04:26:12;;;;;;;1.45;0.50;;;19.90;73.40;;;;;;5092830;28;20052;-61
2023/08/31 04:28:39;;;;;;;1.08;0.50;;;20.00;73.50;;;;;;5092548;28;20032;-61
2023/08/31 04:31:06;;;;;;;0.52;0.30;;;20.00;73.60;;;;;;5092003;28;20093;-60
2023/08/31 04:33:36;;;;;;;0.90;0.45;;;20.00;73.50;;;;;;5091176;28;20052;-61
2023/08/31 04:36:03;;;;;;;1.63;0.57;;;20.00;73.50;;;;;;5092398;28;20101;-60
2023/08/31 04:38:29;;;;;;;1.47;0.50;;;20.00;73.40;;;;;;5091812;28;20052;-60
2023/08/31 04:40:54;;;;;;;0.73;0.40;;;20.00;73.40;;;;;;5090851;28;20101;-60
2023/08/31 04:43:20;;;;;;;1.30;0.50;;;20.00;73.30;;;;;;5091312;28;20044;-60
2023/08/31 04:45:45;;;;;;;1.17;0.50;;;20.00;73.30;;;;;;5091385;28;20471;-61
2023/08/31 04:48:11;;;;;;;0.65;0.40;;;20.00;73.30;;;;;;5092567;28;20044;-60
2023/08/31 04:50:37;;;;;;;1.90;0.60;;;20.00;73.30;;;;;;5091682;28;20048;-61
2023/08/31 04:53:03;;;;;;;1.48;0.40;;;20.10;73.30;;;;;;5091641;28;20086;-61
2023/08/31 04:55:29;;;;;;;0.85;0.40;;;20.00;73.20;;;;;;5092288;28;20127;-61
2023/08/31 04:57:54;;;;;;;2.80;0.50;;;20.10;73.30;;;;;;5090814;28;20129;-61
2023/08/31 05:00:20;;;;;;;0.98;0.40;;;20.10;73.30;;;;;;5091842;28;20044;-61
2023/08/31 05:02:45;;;;;;;0.85;0.47;;;20.10;73.30;;;;;;5092277;28;20134;-61
2023/08/31 05:05:11;;;;;;;2.00;0.45;;;20.10;73.30;;;;;;5091453;28;20044;-61
2023/08/31 05:07:37;;;;;;;0.75;0.40;;;20.10;73.20;;;;;;5091233;28;20036;-61
2023/08/31 05:10:03;;;;;;;1.20;0.50;;;20.10;73.20;;;;;;5092247;28;20051;-61
2023/08/31 05:12:28;;;;;;;1.60;0.50;;;20.10;73.20;;;;;;5090400;28;20036;-61
2023/08/31 05:14:54;;;;;;;1.63;0.60;;;20.10;73.20;;;;;;5091820;28;20040;-61
2023/08/31 05:17:21;;;;;;;1.77;0.50;;;20.10;73.10;;;;;;5092083;28;20066;-61
2023/08/31 05:19:47;;;;;;;1.50;0.52;;;20.10;73.10;;;;;;5089542;28;20048;-60
2023/08/31 05:22:12;;;;;;;1.40;0.52;;;20.20;73.10;;;;;;5096098;28;20036;-61
2023/08/31 05:24:38;;;;;;;0.60;0.30;;;20.20;73.10;;;;;;5094877;28;20054;-61
2023/08/31 05:27:04;;;;;;;1.23;0.47;;;20.20;73.10;;;;;;5094266;28;20081;-60
2023/08/31 05:29:30;;;;;;;1.00;0.50;;;20.20;73.10;;;;;;5095910;28;20480;-61
2023/08/31 05:31:55;;;;;;;0.80;0.40;;;20.20;73.00;;;;;;5095301;28;20047;-61
2023/08/31 05:34:21;;;;;;;0.65;0.40;;;20.20;73.00;;;;;;5093365;28;20078;-61
2023/08/31 05:36:47;;;;;;;1.65;0.50;;;20.20;73.00;;;;;;5095075;28;20056;-61
2023/08/31 05:39:13;;;;;;;0.68;0.35;;;20.20;73.00;;;;;;5094740;28;20181;-61
2023/08/31 05:41:41;;;;;;;0.95;0.40;;;20.20;73.00;;;;;;5094525;28;20044;-61
2023/08/31 05:44:08;;;;;;;1.27;0.50;;;20.20;73.00;;;;;;5095754;28;20506;-61
2023/08/31 05:46:33;;;;;;;0.57;0.40;;;20.20;73.00;;;;;;5095333;28;20063;-61
2023/08/31 05:48:59;;;;;;;0.93;0.40;;;20.20;73.00;;;;;;5094673;28;20471;-61
2023/08/31 05:51:25;;;;;;;0.68;0.40;;;20.20;73.00;;;;;;5095388;28;20068;-61
2023/08/31 05:53:50;;;;;;;1.60;0.40;;;20.20;73.00;;;;;;5095258;28;20044;-61
2023/08/31 05:56:16;;;;;;;1.10;0.50;;;20.20;73.00;;;;;;5094730;28;20388;-61
2023/08/31 05:58:41;;;;;;;0.70;0.40;;;20.20;73.10;;;;;;5095125;28;20538;-61
2023/08/31 06:01:07;;;;;;;0.68;0.40;;;20.20;73.10;;;;;;5094243;28;20044;-61
2023/08/31 06:03:32;;;;;;;0.88;0.30;;;20.20;73.10;;;;;;5092314;28;20542;-61
2023/08/31 06:05:58;;;;;;;1.52;0.50;;;20.20;73.10;;;;;;5094445;28;20500;-61
2023/08/31 06:08:24;;;;;;;0.63;0.30;;;20.20;73.10;;;;;;5095006;28;20101;-60
2023/08/31 06:10:50;;;;;;;0.90;0.38;;;20.20;73.20;;;;;;5094251;28;20468;-60
2023/08/31 06:13:15;;;;;;;2.20;0.40;;;20.20;73.20;;;;;;5094833;28;20181;-60
2023/08/31 06:15:41;;;;;;;2.22;0.60;;;20.20;73.20;;;;;;5093955;28;20040;-67
2023/08/31 06:18:07;;;;;;;3.88;0.50;;;20.20;73.20;;;;;;5093809;28;20044;-60
2023/08/31 06:20:32;;;;;;;8.35;0.70;;;20.20;73.00;;;;;;5094619;28;20044;-60
2023/08/31 06:23:02;;;;;;;6.80;1.00;;;20.20;73.00;;;;;;5093724;28;20162;-60
2023/08/31 06:25:27;;;;;;;5.03;1.05;;;20.20;73.00;;;;;;5094839;28;20038;-60
2023/08/31 06:27:53;;;;;;;3.72;0.68;;;20.30;73.00;;;;;;5093154;28;20048;-60
2023/08/31 06:30:19;;;;;;;3.53;0.50;;;20.20;73.00;;;;;;5093983;28;20079;-60
2023/08/31 06:32:45;;;;;;;4.22;0.68;;;20.30;73.00;;;;;;5093580;28;20037;-60
2023/08/31 06:35:12;;;;;;;5.63;0.70;;;20.20;73.00;;;;;;5093014;28;20087;-60
2023/08/31 06:37:37;;;;;;;3.65;0.60;;;20.30;73.10;;;;;;5091841;28;20494;-61
2023/08/31 06:40:04;;;;;;;3.08;0.77;;;20.30;73.00;;;;;;5094374;28;20044;-61
2023/08/31 06:42:30;;;;;;;1.70;0.68;;;20.30;73.10;;;;;;5094352;28;20048;-61
2023/08/31 06:44:56;;;;;;;2.67;0.60;;;20.30;73.10;;;;;;5093398;28;20055;-61
2023/08/31 06:47:22;;;;;;;2.85;0.63;;;20.30;73.10;;;;;;5094411;28;20032;-60
2023/08/31 06:49:48;;;;;;;2.78;0.70;;;20.30;73.10;;;;;;5093838;28;20054;-61
2023/08/31 06:52:14;;;;;;;5.07;0.55;;;20.30;73.10;;;;;;5093309;28;20051;-62
2023/08/31 06:54:39;;;;;;;4.80;0.50;;;20.30;73.10;;;;;;5092550;28;20038;-62
2023/08/31 06:57:05;;;;;;;2.42;0.70;;;20.40;73.20;;;;;;5094347;28;20043;-61
2023/08/31 06:59:30;;;;;;;2.47;0.43;;;20.30;73.10;;;;;;5092077;28;20062;-61
2023/08/31 07:01:56;;;;;;;4.43;0.52;;;20.40;73.20;;;;;;5088672;28;20036;-61
2023/08/31 07:04:21;;;;;;;3.13;0.60;;;20.40;73.10;;;;;;5093614;28;20040;-61
2023/08/31 07:06:47;;;;;;;1.42;0.50;;;20.40;73.10;;;;;;5092273;28;20043;-61
2023/08/31 07:09:12;;;;;;;2.42;0.65;;;20.40;73.20;;;;;;5093980;28;20097;-61
2023/08/31 07:11:38;;;;;;;2.50;0.70;;;20.40;73.20;;;;;;5092118;28;20048;-61
2023/08/31 07:14:04;;;;;;;3.30;0.50;;;20.50;73.30;;;;;;5090260;28;20399;-61
2023/08/31 07:16:29;;;;;;;2.88;0.50;;;20.50;73.30;;;;;;5093628;28;20044;-61
2023/08/31 07:18:55;;;;;;;3.40;0.55;;;20.40;73.30;;;;;;5092880;28;20086;-61
2023/08/31 07:21:20;;;;;;;2.10;0.60;;;20.50;73.30;;;;;;5092849;28;20032;-61
2023/08/31 07:23:46;;;;;;;2.92;0.65;;;20.50;73.20;;;;;;5083175;28;20047;-61
2023/08/31 07:26:12;;;;;;;2.75;0.98;;;20.50;73.20;;;;;;5092557;28;20028;-61
2023/08/31 07:28:37;;;;;;;3.33;0.52;;;20.50;73.20;;;;;;5093209;28;20036;-60
2023/08/31 07:31:04;;;;;;;6.07;0.77;;;20.50;73.10;;;;;;5093555;28;20100;-61
2023/08/31 07:33:31;;;;;;;2.60;0.80;;;20.50;73.00;;;;;;5092752;28;20055;-60
2023/08/31 07:35:57;;;;;;;4.18;0.80;;;20.50;72.80;;;;;;5091138;28;20067;-60
2023/08/31 07:38:23;;;;;;;4.03;0.55;;;20.50;72.70;;;;;;5091514;28;20040;-61
2023/08/31 07:40:48;;;;;;;1.77;0.50;;;20.50;72.70;;;;;;5092117;28;20126;-61
2023/08/31 07:43:14;;;;;;;4.07;0.80;;;20.50;72.80;;;;;;5081387;28;20048;-60
2023/08/31 07:45:40;;;;;;;3.10;0.50;;;20.50;72.80;;;;;;5086769;28;20040;-60
2023/08/31 07:48:06;;;;;;;3.30;0.57;;;20.50;72.80;;;;;;5091914;28;20075;-61
2023/08/31 07:50:32;;;;;;;1.85;0.57;;;20.60;72.90;;;;;;5093211;28;20051;-60
2023/08/31 07:52:58;;;;;;;2.97;0.68;;;20.60;72.90;;;;;;5092550;28;20048;-60
2023/08/31 07:55:23;;;;;;;4.60;0.70;;;20.60;72.90;;;;;;5092508;28;20048;-61
2023/08/31 07:57:49;;;;;;;4.93;0.75;;;20.60;72.90;;;;;;5092449;28;20094;-59
2023/08/31 08:00:15;;;;;;;4.85;0.52;;;20.60;72.90;;;;;;5092887;28;20131;-61
2023/08/31 08:02:40;;;;;;;2.50;0.52;;;20.60;72.90;;;;;;5091822;28;20040;-61
2023/08/31 08:05:06;;;;;;;2.08;0.50;;;20.60;73.50;;;;;;5088999;28;20054;-60
2023/08/31 08:07:32;;;;;;;3.92;0.55;;;20.70;72.90;;;;;;5088631;28;20414;-61
2023/08/31 08:09:58;;;;;;;4.28;0.75;;;20.70;72.80;;;;;;5091947;28;20127;-63
2023/08/31 08:12:24;;;;;;;3.67;0.50;;;20.70;72.80;;;;;;5091524;28;20048;-61
2023/08/31 08:14:50;;;;;;;1.75;0.50;;;20.70;72.90;;;;;;5092491;28;20048;-61
2023/08/31 08:17:16;;;;;;;6.10;0.70;;;20.70;72.80;;;;;;5092049;28;20032;-61
2023/08/31 08:19:41;;;;;;;2.55;0.70;;;20.80;72.90;;;;;;5092168;28;20133;-61
2023/08/31 08:22:07;;;;;;;3.17;0.80;;;20.80;72.90;;;;;;5092573;28;20123;-60
2023/08/31 08:24:32;;;;;;;2.97;0.40;;;20.80;72.90;;;;;;5090478;28;20047;-61
2023/08/31 08:26:58;;;;;;;6.15;0.70;;;20.80;72.80;;;;;;5092320;28;20086;-60
2023/08/31 08:29:24;;;;;;;4.70;0.60;;;20.80;72.80;;;;;;5092059;28;20127;-60
2023/08/31 08:31:50;;;;;;;3.15;0.60;;;20.80;72.80;;;;;;5092047;28;20032;-61
2023/08/31 08:34:15;;;;;;;5.25;0.90;;;20.80;72.80;;;;;;5092431;28;20127;-61
2023/08/31 08:36:41;;;;;;;2.13;0.40;;;20.80;72.80;;;;;;5089757;28;20401;-61
2023/08/31 08:39:07;;;;;;;1.77;0.60;;;20.80;72.90;;;;;;5092096;28;20093;-61
2023/08/31 08:41:33;;;;;;;4.35;0.80;;;20.80;72.90;;;;;;5092717;28;20032;-61
2023/08/31 08:44:03;;;;;;;4.07;0.70;;;20.80;73.00;;;;;;5091156;28;20048;-61
2023/08/31 08:46:30;;;;;;;4.43;0.80;;;20.80;73.00;;;;;;5091388;28;20040;-61
2023/08/31 08:48:56;;;;;;;5.47;0.77;;;20.90;73.10;;;;;;5090581;28;20074;-61
2023/08/31 08:51:22;;;;;;;3.22;0.50;;;20.80;73.00;;;;;;5073427;28;20069;-61
2023/08/31 08:53:47;;;;;;;2.88;0.50;;;20.90;73.10;;;;;;5048463;28;20057;-62
2023/08/31 08:56:13;;;;;;;2.78;0.60;;;20.90;73.20;;;;;;5091202;28;20040;-63
2023/08/31 08:58:38;;;;;;;2.72;0.65;;;20.90;73.50;;;;;;5092958;28;20048;-62
2023/08/31 09:01:04;;;;;;;1.90;0.52;;;20.90;73.20;;;;;;5087214;28;20068;-62
2023/08/31 09:03:30;;;;;;;2.53;0.40;;;20.90;73.30;;;;;;5073248;28;20032;-62
2023/08/31 09:05:56;;;;;;;2.67;0.68;;;21.00;73.30;;;;;;5093345;28;20052;-62
2023/08/31 09:08:28;;;;;;;2.17;0.50;;;21.00;73.30;;;;;;5092891;28;20044;-62
2023/08/31 09:10:58;;;;;;;3.53;0.55;;;21.00;73.30;;;;;;5092512;28;20044;-62
2023/08/31 09:13:26;;;;;;;3.47;0.50;;;21.00;73.20;;;;;;5090923;28;20067;-62
2023/08/31 09:15:52;;;;;;;3.40;0.43;;;21.00;73.20;;;;;;5090277;28;20044;-61
2023/08/31 09:18:25;;;;;;;2.70;0.60;;;21.00;73.20;;;;;;5094840;28;20046;-61
2023/08/31 09:20:51;;;;;;;3.03;0.70;;;21.10;73.20;;;;;;5094293;28;20102;-61
2023/08/31 09:23:17;;;;;;;5.30;0.60;;;21.10;73.00;;;;;;5095764;28;20040;-61
2023/08/31 09:25:50;;;;;;;7.55;0.82;;;21.10;72.90;;;;;;5084198;28;20040;-61
2023/08/31 09:28:16;;;;;;;6.05;0.95;;;21.10;72.80;;;;;;5092809;28;20499;-61
2023/08/31 09:30:42;;;;;;;2.17;0.40;;;21.10;72.70;;;;;;5085279;28;20040;-61
2023/08/31 09:33:16;;;;;;;2.90;0.40;;;21.10;72.60;;;;;;5085049;28;20045;-62
2023/08/31 09:35:49;;;;;;;1.73;0.50;;;21.20;72.60;;;;;;5093330;28;20100;-60
2023/08/31 09:38:15;;;;;;;4.43;0.60;;;21.10;72.60;;;;;;5087979;28;20046;-61
2023/08/31 09:40:40;;;;;;;7.22;0.63;;;21.10;72.60;;;;;;5093549;28;20122;-60
2023/08/31 09:43:06;;;;;;;4.68;0.77;;;21.10;72.80;;;;;;5094410;28;20442;-60
2023/08/31 09:45:33;;;;;;;5.07;1.30;;;21.10;72.90;;;;;;5095392;28;20048;-60
2023/08/31 09:48:00;;;;;;;2.55;0.60;;;21.10;72.90;;;;;;5094651;28;20045;-61
2023/08/31 09:50:25;;;;;;;9.43;0.82;;;21.10;73.00;;;;;;5076773;28;20412;-61
2023/08/31 09:52:51;;;;;;;3.55;0.52;;;21.10;73.00;;;;;;5075081;28;20037;-60
2023/08/31 09:55:17;;;;;;;6.55;0.80;;;21.10;73.10;;;;;;5059913;28;20072;-61
2023/08/31 09:57:45;;;;;;;10.43;0.70;;;21.10;73.10;;;;;;5076752;28;20568;-60
2023/08/31 10:00:15;;;;;;;2.25;0.55;;;21.00;73.10;;;;;;5076636;28;20506;-61
2023/08/31 10:02:42;;;;;;;5.07;0.65;;;21.00;73.70;;;;;;5091162;28;20050;-61
2023/08/31 10:05:08;;;;;;;7.00;0.80;;;21.00;73.10;;;;;;5076217;28;20036;-61
2023/08/31 10:07:33;;;;;;;3.95;0.70;;;21.10;73.30;;;;;;5094099;28;20076;-61
2023/08/31 10:09:59;;;;;;;1.48;0.47;;;21.10;73.30;;;;;;5075901;28;20076;-62
2023/08/31 10:12:24;;;;;;;2.97;0.52;;;21.10;73.30;;;;;;5066041;28;20039;-61
2023/08/31 10:14:52;;;;;;;1.75;0.60;;;21.10;73.30;;;;;;5086220;28;20181;-60
2023/08/31 10:17:18;;;;;;;2.47;0.50;;;21.10;73.30;;;;;;5077349;28;20036;-60
2023/08/31 10:19:43;;;;;;;3.67;0.50;;;21.10;73.20;;;;;;5093445;28;20369;-60
2023/08/31 10:22:09;;;;;;;6.10;1.00;;;21.10;73.20;;;;;;5093737;28;20040;-59
2023/08/31 10:24:57;;;;;;;3.50;0.60;;;21.10;73.20;;;;;;5093561;28;20048;-60
2023/08/31 10:27:23;;;;;;;2.22;0.70;;;21.10;73.10;;;;;;5093613;28;20054;-59
2023/08/31 10:29:49;;;;;;;3.38;0.60;;;21.00;73.20;;;;;;5092787;28;20028;-59
2023/08/31 10:32:22;;;;;;;3.97;0.70;;;21.00;73.30;;;;;;5094519;28;20055;-60
2023/08/31 10:35:07;;;;;;;1.45;0.60;;;21.00;73.20;;;;;;5088360;28;20040;-59
2023/08/31 10:37:33;;;;;;;4.57;0.55;;;21.00;73.20;;;;;;5035571;28;20126;-59
2023/08/31 10:40:11;;;;;;;2.65;0.60;;;21.00;73.20;;;;;;5054129;28;20085;-61
2023/08/31 10:42:43;;;;;;;;;;;21.00;73.20;;;;;;5054428;28;20127;-60
2023/08/31 10:45:09;;;;;;;2.60;0.70;;;21.00;73.10;;;;;;5033965;28;20019;-59
2023/08/31 10:47:41;;;;;;;4.43;0.77;;;21.00;73.80;;;;;;5033977;28;20128;-60
2023/08/31 10:50:21;;;;;;;4.63;0.60;;;21.00;73.70;;;;;;5033500;28;20102;-60
2023/08/31 10:52:47;;;;;;;4.20;0.52;;;21.00;72.90;;;;;;5033333;28;20124;-60
2023/08/31 10:55:12;;;;;;;3.75;0.60;;;21.00;72.90;;;;;;5043806;28;20148;-59
2023/08/31 10:57:39;;;;;;;3.45;0.60;;;21.00;72.90;;;;;;5043528;28;20040;-59
2023/08/31 11:00:05;;;;;;;4.85;0.80;;;21.00;72.90;;;;;;5052482;28;20076;-60
2023/08/31 11:02:38;;;;;;;4.38;1.05;;;21.00;72.90;;;;;;5052819;28;20090;-60
2023/08/31 11:05:07;;;;;;;6.22;1.48;;;21.00;72.80;;;;;;5053108;28;20040;-60
2023/08/31 11:07:34;;;;;;;6.20;1.55;;;21.00;72.80;;;;;;5054078;28;20174;-60
2023/08/31 11:10:11;;;;;;;4.70;1.35;;;21.00;72.70;;;;;;5053578;28;20094;-60
2023/08/31 11:12:37;;;;;;;8.68;1.75;;;21.10;72.60;;;;;;5052448;28;20049;-60
2023/08/31 11:15:03;;;;;;;5.55;1.30;;;21.10;72.60;;;;;;5053824;28;20094;-60
2023/08/31 11:17:29;;;;;;;8.48;1.35;;;21.00;72.60;;;;;;5053562;28;20052;-60
2023/08/31 11:19:56;;;;;;;4.28;1.15;;;21.00;72.50;;;;;;5052180;28;20041;-59
2023/08/31 11:22:22;;;;;;;7.10;1.40;;;21.00;72.40;;;;;;5052345;28;20052;-59
2023/08/31 11:24:47;;;;;;;7.82;1.40;;;21.00;72.50;;;;;;5052246;28;20388;-59
2023/08/31 11:27:13;;;;;;;4.57;1.38;;;21.00;72.50;;;;;;5052682;28;20473;-59
2023/08/31 11:29:43;;;;;;;6.68;1.35;;;21.00;72.50;;;;;;5052917;28;20049;-59
2023/08/31 11:32:08;;;;;;;5.25;1.35;;;21.00;72.60;;;;;;5053095;28;20067;-59
2023/08/31 11:34:36;;;;;;;5.53;1.15;;;21.00;72.60;;;;;;5052436;28;20496;-60
2023/08/31 11:37:02;;;;;;;4.47;1.30;;;21.00;72.60;;;;;;5088393;28;20063;-59
2023/08/31 11:39:28;;;;;;;6.00;1.85;;;21.00;72.60;;;;;;5091682;28;20047;-60
2023/08/31 11:41:53;;;;;;;5.32;1.40;;;21.00;72.60;;;;;;5093105;28;20494;-59
2023/08/31 11:44:19;;;;;;;7.95;1.33;;;21.00;72.60;;;;;;5092040;28;20091;-60
2023/08/31 11:46:48;;;;;;;5.55;1.58;;;21.00;72.60;;;;;;5092346;28;20047;-60
2023/08/31 11:49:13;;;;;;;6.47;1.42;;;21.00;72.60;;;;;;5091819;28;20040;-60
2023/08/31 11:51:39;;;;;;;5.53;1.35;;;21.00;72.60;;;;;;5092898;28;20036;-60
2023/08/31 11:54:05;;;;;;;5.80;1.23;;;21.00;72.60;;;;;;5092408;28;20040;-60
2023/08/31 11:56:50;;;;;;;5.18;1.30;;;20.90;72.60;;;;;;5092061;28;20040;-60
2023/08/31 11:59:17;;;;;;;7.60;1.20;;;21.00;72.70;;;;;;5091934;28;20463;-60
2023/08/31 12:01:43;;;;;;;3.92;1.20;;;21.00;72.70;;;;;;5091848;28;20479;-60
2023/08/31 12:04:16;;;;;;;4.40;1.10;;;21.00;72.70;;;;;;5092884;28;20110;-60
2023/08/31 12:06:44;;;;;;;6.65;1.10;;;21.00;72.70;;;;;;5092872;28;20044;-60
2023/08/31 12:09:09;;;;;;;5.45;1.50;;;21.00;72.70;;;;;;5090811;28;20060;-60
2023/08/31 12:11:35;;;;;;;2.83;0.93;;;21.10;72.70;;;;;;5092670;28;20040;-60
2023/08/31 12:14:01;;;;;;;4.18;1.33;;;21.00;72.60;;;;;;5091874;28;20100;-60
2023/08/31 12:16:36;;;;;;;5.55;1.05;;;21.10;72.60;;;;;;5092162;28;20128;-60
2023/08/31 12:19:04;;;;;;;3.95;1.10;;;21.00;72.50;;;;;;5092474;28;20417;-60
2023/08/31 12:21:30;;;;;;;4.22;0.95;;;21.00;72.40;;;;;;5092220;28;20070;-60
2023/08/31 12:24:00;;;;;;;3.83;0.90;;;21.10;72.50;;;;;;5092055;28;20036;-60
2023/08/31 12:26:26;;;;;;;4.10;1.00;;;21.10;72.40;;;;;;5091468;28;20084;-60
2023/08/31 12:28:52;;;;;;;4.30;1.30;;;21.10;72.40;;;;;;5091856;28;20036;-60
2023/08/31 12:31:17;;;;;;;4.97;1.30;;;21.10;72.30;;;;;;5095487;28;20439;-60
2023/08/31 12:33:43;;;;;;;3.28;1.00;;;21.10;72.20;;;;;;5095158;28;20040;-60
2023/08/31 12:36:08;;;;;;;4.07;1.00;;;21.20;72.20;;;;;;5095658;28;20051;-60
2023/08/31 12:38:34;;;;;;;3.67;0.90;;;21.20;72.10;;;;;;5096184;28;20142;-60
2023/08/31 12:41:01;;;;;;;3.20;0.98;;;21.20;72.70;;;;;;5095593;28;20047;-60
2023/08/31 12:43:28;;;;;;;4.32;1.25;;;21.20;72.10;;;;;;5076075;28;20040;-60
2023/08/31 12:45:54;;;;;;;4.75;0.95;;;21.20;72.00;;;;;;5075687;28;20053;-61